METAR Formatted Surface Weather Observation
Issued by NWS

Home | Current Version | Previous Version | Text Only | Print | Product List | Glossary On
Versions: 1 2 3 4
780
SAUS41 KGYX 271001 COR
MTRNKT
METAR KNKT 270954Z 00000KT 10SM FEW003 11/09 A3014 RMK AO2 SLP204
T01110094



USA.gov is the U.S. government's official web portal to all federal, state and local government web resources and services.